Strona główna
METAR-TAF:

METAR-TAF

Lotnisko :

Port lotniczy Hua Hin

Hua Hin, Tajlandia

Szerokość geograficzna: 12-35N, Długość geograficzna: 099-57E, wysokość: 5 m

Aktualna obserwacja pogody

Raport powstał 1 godzina i 7 minut temu, godzina 04:00 UTC
Wiatr 12 kt od północ w porywach dochodzący do 22 kt, zmienny między północno-północny zachód i północny wschód
Temperatura 24°C
Wilgotność 44%
Ciśnienie 1018 hPa
Widzialność: 9000 m

METAR: VTPH 070400Z 01012G22KT 330V050 9000 NSC 24/11 Q1018 NOSIG

czas: 12:07 (05:07 UTC)

Prognoza

Raport powstał 6 godziny i 7 minut temu, godzina 23:00 UTC
Prognoza ważna od 07 godzina 00 UTC do 07 godzina 24 UTC
Wiatr kt od północ
Widzialność: 8000 m
Mało chmury na wysokości 3000 ft
Stopniowe zmiany
od 07 godzina 02 UTC do 07 godzina 04 UTC
Wiatr 10 kt od północno-północny wschód
Widzialność 10 km lub więcej
Stopniowe zmiany
od 07 godzina 14 UTC do 07 godzina 16 UTC
Wiatr kt od północ

TAF: VTPH 062300Z 0700/0724 00000KT 8000 FEW030 BECMG 0702/0704 03010KT 9999 BECMG 0714/0716 00000KT

Obserwacja i prognoza pogody dla ponad 4000 lotnisk (raport METAR i TAF).

Dostępne stacje oznaczono żółtymi i czerwonymi punktami na mapie.

Najedź kursorem aby zobaczyć nazwę stacji.

Kliknij aby zobaczyć obserwacje i prognozy pogody.

Aby zmienić mapę: kliknij na zielony przycisk z czarnym krzyżykiem, aby powiększyć; na zielony przycisk z myślnikiem, aby pomniejszyć; na zielone strzałki, aby przejść do map sąsiednich.


METAR-TAF: